Time;durP1;ratioP1;P1;durP2;ratioP2;P2;SDS_P1;SDS_P2;PMS_P1;PMS_P2;Temp;Humidity;BMP_temperature;BMP_pressure;BME280_temperature;BME280_humidity;BME280_pressure;Samples;Min_cycle;Max_cycle;Signal;HPM_P1;HPM_P2
2022/05/20 00:01:28;;;;;;;21.90;20.90;;;20.50;56.40;;;;;;4989644;28;20545;-84
2022/05/20 00:03:54;;;;;;;21.73;20.73;;;20.50;56.50;;;;;;4989534;28;20678;-85
2022/05/20 00:06:20;;;;;;;21.67;20.67;;;20.40;56.60;;;;;;4989458;28;20528;-86
2022/05/20 00:08:45;;;;;;;21.80;20.80;;;20.40;56.10;;;;;;4989586;28;20278;-85
2022/05/20 00:11:11;;;;;;;21.63;20.63;;;20.40;56.90;;;;;;4989659;28;20171;-85
2022/05/20 00:13:36;;;;;;;21.40;20.50;;;20.40;57.10;;;;;;4989437;28;20171;-85
2022/05/20 00:16:02;;;;;;;22.90;21.70;;;20.30;57.10;;;;;;4989203;28;20230;-85
2022/05/20 00:21:50;;;;;;;22.60;21.17;;;20.30;55.90;;;;;;4974704;28;20158;-85
2022/05/20 00:24:15;;;;;;;21.60;20.60;;;20.30;55.20;;;;;;4989105;28;21062;-85
2022/05/20 00:26:41;;;;;;;22.30;21.10;;;20.30;55.80;;;;;;4988909;28;20432;-84
2022/05/20 00:29:06;;;;;;;22.37;21.37;;;20.30;55.40;;;;;;4974389;28;20205;-83
2022/05/20 00:31:33;;;;;;;22.27;21.17;;;20.30;56.80;;;;;;4989334;28;20263;-84
2022/05/20 00:33:59;;;;;;;22.27;21.17;;;20.30;56.10;;;;;;4989399;28;20179;-84
2022/05/20 00:36:24;;;;;;;23.30;21.90;;;20.30;56.00;;;;;;4988773;28;20418;-84
2022/05/20 00:38:51;;;;;;;22.87;21.50;;;20.30;55.60;;;;;;4989063;28;20789;-85
2022/05/20 00:41:16;;;;;;;22.30;21.30;;;20.20;56.10;;;;;;4989381;28;20210;-84
2022/05/20 00:43:45;;;;;;;22.70;21.60;;;20.20;55.30;;;;;;4989280;28;21132;-84
2022/05/20 00:46:17;;;;;;;22.50;21.33;;;20.20;56.50;;;;;;4989014;28;20182;-85
2022/05/20 00:48:43;;;;;;;22.80;21.70;;;20.20;56.80;;;;;;4985863;28;20465;-84
2022/05/20 00:51:18;;;;;;;23.30;21.93;;;20.20;55.70;;;;;;4971582;28;20493;-84
2022/05/20 00:53:59;;;;;;;23.00;21.87;;;20.20;56.90;;;;;;4970329;28;20560;-84
2022/05/20 00:56:50;;;;;;;22.07;21.07;;;20.10;57.30;;;;;;4970470;28;20472;-84
2022/05/20 00:59:19;;;;;;;21.10;20.20;;;20.10;56.90;;;;;;4986652;28;20422;-84
2022/05/20 01:01:50;;;;;;;22.23;21.13;;;20.10;57.70;;;;;;4972923;28;20778;-85
2022/05/20 01:04:17;;;;;;;23.17;21.97;;;20.00;57.90;;;;;;4969097;28;20417;-80
2022/05/20 01:06:43;;;;;;;22.23;21.23;;;20.00;56.70;;;;;;4969511;28;20437;-80
2022/05/20 01:09:09;;;;;;;22.40;21.30;;;20.00;57.50;;;;;;4969254;28;20462;-80
2022/05/20 01:11:38;;;;;;;22.07;20.97;;;19.90;56.80;;;;;;4968974;28;20183;-81
2022/05/20 01:14:04;;;;;;;23.13;22.03;;;19.90;56.70;;;;;;4969730;28;20175;-80
2022/05/20 01:16:32;;;;;;;22.93;21.73;;;20.00;56.60;;;;;;4972195;28;20410;-80
2022/05/20 01:18:57;;;;;;;22.70;21.50;;;20.00;56.00;;;;;;4972490;28;20426;-80
2022/05/20 01:21:23;;;;;;;23.07;21.67;;;20.00;56.40;;;;;;4973749;28;20878;-81
2022/05/20 01:23:49;;;;;;;22.07;21.07;;;20.00;56.30;;;;;;4971514;28;20202;-81
2022/05/20 01:26:15;;;;;;;22.57;21.37;;;20.00;57.50;;;;;;4971882;28;20438;-80
2022/05/20 01:28:41;;;;;;;23.00;21.80;;;20.00;56.60;;;;;;4972303;28;20513;-81
2022/05/20 01:31:12;;;;;;;22.30;21.20;;;20.00;56.00;;;;;;4971839;28;20179;-81
2022/05/20 01:33:43;;;;;;;22.67;21.50;;;20.00;56.10;;;;;;4972133;28;20177;-81
2022/05/20 01:36:13;;;;;;;22.67;21.57;;;20.00;56.40;;;;;;4971829;28;20414;-81
2022/05/20 01:38:39;;;;;;;23.03;21.93;;;20.00;56.20;;;;;;4972324;28;20429;-81
2022/05/20 01:41:14;;;;;;;22.17;21.27;;;19.90;57.10;;;;;;4972326;28;20418;-81
2022/05/20 01:43:55;;;;;;;22.90;21.90;;;19.90;56.60;;;;;;4973357;28;20933;-81
2022/05/20 01:46:41;;;;;;;23.20;21.90;;;19.90;56.40;;;;;;5010811;23;20558;-85
2022/05/20 01:49:18;;;;;;;22.87;21.87;;;19.90;56.40;;;;;;5013037;28;20451;-84
2022/05/20 01:52:27;;;;;;;22.60;21.50;;;19.90;56.60;;;;;;5015382;28;20475;-80
2022/05/20 01:55:08;;;;;;;22.80;21.70;;;19.90;56.90;;;;;;5013639;28;20566;-80
2022/05/20 01:57:41;;;;;;;22.20;21.10;;;19.90;56.60;;;;;;5014127;28;20416;-81
2022/05/20 02:00:07;;;;;;;23.50;22.17;;;19.80;57.40;;;;;;5014099;28;20784;-81
2022/05/20 02:03:01;;;;;;;22.37;21.10;;;19.80;57.50;;;;;;5013949;28;20420;-80
2022/05/20 02:06:04;;;;;;;22.93;21.83;;;19.80;57.90;;;;;;5005805;28;20420;-85
2022/05/20 02:08:36;;;;;;;23.70;22.30;;;19.70;57.30;;;;;;4957667;28;20539;-85
2022/05/20 02:11:19;;;;;;;22.63;21.63;;;19.80;57.60;;;;;;5005252;28;20405;-85
2022/05/20 02:13:50;;;;;;;23.70;22.60;;;19.80;57.20;;;;;;5013939;28;20417;-85
2022/05/20 02:16:26;;;;;;;22.93;21.73;;;19.80;58.00;;;;;;5013550;28;20408;-85
2022/05/20 02:18:59;;;;;;;22.97;21.83;;;19.80;57.50;;;;;;5014039;28;20954;-85
2022/05/20 02:21:27;;;;;;;22.70;21.50;;;19.80;57.90;;;;;;5013838;28;20455;-85
2022/05/20 02:24:01;;;;;;;22.20;21.20;;;19.80;57.70;;;;;;5013851;28;20416;-85
2022/05/20 02:26:32;;;;;;;23.47;22.27;;;19.80;58.00;;;;;;5013571;28;20454;-85
2022/05/20 02:29:01;;;;;;;22.67;21.53;;;19.80;57.80;;;;;;5013493;28;20551;-85
2022/05/20 02:31:38;;;;;;;23.97;22.50;;;19.80;57.20;;;;;;5013557;28;20761;-85
2022/05/20 02:34:04;;;;;;;24.00;22.40;;;19.70;56.80;;;;;;5013626;28;20424;-85
2022/05/20 02:36:34;;;;;;;23.83;22.33;;;19.80;57.50;;;;;;5013204;28;20416;-85
2022/05/20 02:39:03;;;;;;;23.23;21.90;;;19.80;57.90;;;;;;5013779;28;20182;-85
2022/05/20 02:41:29;;;;;;;23.10;21.90;;;19.80;57.00;;;;;;5013601;28;20427;-85
2022/05/20 02:43:55;;;;;;;23.20;22.10;;;19.70;57.40;;;;;;5013714;28;20475;-85
2022/05/20 02:46:21;;;;;;;22.77;21.67;;;19.80;58.60;;;;;;5013218;28;20944;-85
2022/05/20 02:48:47;;;;;;;22.83;21.57;;;19.80;58.50;;;;;;5013517;28;20201;-85
2022/05/20 02:51:12;;;;;;;22.83;21.73;;;19.70;58.50;;;;;;5013803;28;20725;-85
2022/05/20 02:53:38;;;;;;;23.27;22.07;;;19.70;58.40;;;;;;5013226;28;20920;-85
2022/05/20 02:56:04;;;;;;;23.77;22.57;;;19.70;59.50;;;;;;5013228;28;20587;-85
2022/05/20 03:04:10;;;;;;;23.90;22.80;;;19.60;59.10;;;;;;5014813;28;20419;-85
2022/05/20 03:06:50;;;;;;;24.70;23.40;;;19.60;58.90;;;;;;5012124;28;20420;-85
2022/05/20 03:09:21;;;;;;;25.50;24.30;;;19.60;58.50;;;;;;5013539;28;20880;-85
2022/05/20 03:11:47;;;;;;;24.27;23.07;;;19.60;58.60;;;;;;5012513;28;20772;-85
2022/05/20 03:14:16;;;;;;;24.27;22.53;;;19.50;58.60;;;;;;5012723;28;20731;-85
2022/05/20 03:16:42;;;;;;;24.73;23.40;;;19.50;58.70;;;;;;5014013;28;20412;-85
2022/05/20 03:19:08;;;;;;;23.77;22.57;;;19.60;59.20;;;;;;5013989;28;20908;-85
2022/05/20 03:21:35;;;;;;;24.90;23.60;;;19.50;59.10;;;;;;5012849;28;20420;-85
2022/05/20 03:24:01;;;;;;;23.57;22.47;;;19.50;59.60;;;;;;5012579;28;20416;-86
2022/05/20 03:26:28;;;;;;;25.17;23.93;;;19.50;59.20;;;;;;5012397;28;20504;-85
2022/05/20 03:28:54;;;;;;;23.70;22.50;;;19.50;59.00;;;;;;5012751;28;20463;-85
2022/05/20 03:31:19;;;;;;;23.17;22.00;;;19.60;59.80;;;;;;5012416;28;20479;-85
2022/05/20 03:33:46;;;;;;;26.17;24.33;;;19.60;59.00;;;;;;5012011;28;20212;-85
2022/05/20 03:36:12;;;;;;;26.10;24.70;;;19.70;59.10;;;;;;5012291;28;20182;-85
2022/05/20 03:38:39;;;;;;;25.00;23.63;;;19.60;59.80;;;;;;5012412;28;20790;-85
2022/05/20 03:41:05;;;;;;;25.67;24.00;;;19.60;59.10;;;;;;5012644;28;20424;-85
2022/05/20 03:43:33;;;;;;;24.33;23.03;;;19.70;59.00;;;;;;5012148;28;20431;-85
2022/05/20 03:45:59;;;;;;;24.63;22.83;;;19.70;58.60;;;;;;5012292;28;20486;-85
2022/05/20 03:48:25;;;;;;;25.10;23.90;;;19.70;59.10;;;;;;5012273;28;20550;-84
2022/05/20 03:50:50;;;;;;;23.70;22.33;;;19.80;57.60;;;;;;5013653;28;20412;-85
2022/05/20 03:53:16;;;;;;;25.33;24.13;;;19.80;57.40;;;;;;5013150;28;20412;-86
2022/05/20 03:55:42;;;;;;;26.33;24.92;;;19.90;57.30;;;;;;5010740;28;20407;-84
2022/05/20 03:58:08;;;;;;;25.07;23.87;;;19.80;57.40;;;;;;5011961;28;20675;-84
2022/05/20 04:01:56;;;;;;;25.47;24.27;;;19.90;58.00;;;;;;5011902;28;20231;-83
2022/05/20 04:03:23;;;;;;;27.53;25.90;;;19.90;57.20;;;;;;5012838;28;20199;-84
2022/05/20 04:05:49;;;;;;;26.50;25.30;;;19.90;57.60;;;;;;5011816;28;20425;-84
2022/05/20 04:08:16;;;;;;;26.27;24.93;;;19.90;57.70;;;;;;5011523;28;20483;-84
2022/05/20 04:10:42;;;;;;;26.90;25.60;;;19.90;57.00;;;;;;5012173;28;20420;-85
2022/05/20 04:13:08;;;;;;;27.60;26.07;;;19.90;57.40;;;;;;5011649;28;20448;-84
2022/05/20 04:15:33;;;;;;;26.87;25.67;;;19.90;56.90;;;;;;5009538;28;20830;-84
2022/05/20 04:17:59;;;;;;;26.00;24.70;;;19.90;56.70;;;;;;5011488;28;20420;-85
2022/05/20 04:20:26;;;;;;;28.57;27.07;;;19.90;55.50;;;;;;5011665;28;20224;-85
2022/05/20 04:22:52;;;;;;;25.83;24.63;;;19.90;56.50;;;;;;5011657;28;20252;-86
2022/05/20 04:25:18;;;;;;;26.40;25.10;;;19.90;57.10;;;;;;5011152;28;20420;-86
2022/05/20 04:27:43;;;;;;;24.87;23.67;;;19.80;55.20;;;;;;5011666;28;20513;-85
2022/05/20 04:30:10;;;;;;;25.40;24.20;;;19.80;55.70;;;;;;5011527;28;20178;-84
2022/05/20 04:32:35;;;;;;;25.40;24.20;;;19.80;55.50;;;;;;5011350;28;20180;-83
2022/05/20 04:35:04;;;;;;;26.67;25.47;;;19.80;54.50;;;;;;5007963;28;20417;-84
2022/05/20 04:37:29;;;;;;;27.77;26.47;;;19.80;53.10;;;;;;5015896;28;20181;-83
2022/05/20 04:39:55;;;;;;;25.57;24.20;;;19.80;54.10;;;;;;5015972;28;20418;-83
2022/05/20 04:47:51;;;;;;;25.20;23.70;;;19.90;53.50;;;;;;4993837;28;20488;-86
2022/05/20 04:50:16;;;;;;;25.50;24.10;;;19.90;52.30;;;;;;4992376;28;20427;-85
2022/05/20 04:52:42;;;;;;;25.97;24.67;;;20.00;53.20;;;;;;5009368;28;20417;-84
2022/05/20 04:55:08;;;;;;;25.43;24.10;;;20.00;52.30;;;;;;4993070;28;20249;-85
2022/05/20 04:57:44;;;;;;;24.60;23.40;;;20.00;53.80;;;;;;4991690;28;20180;-84
2022/05/20 05:00:28;;;;;;;24.33;23.07;;;20.00;53.20;;;;;;4992012;28;20208;-85
2022/05/20 05:02:55;;;;;;;25.73;24.53;;;20.00;53.20;;;;;;4993207;28;20453;-84
2022/05/20 05:05:23;;;;;;;24.20;23.10;;;20.00;52.60;;;;;;4991253;28;20413;-85
2022/05/20 05:07:51;;;;;;;26.20;24.70;;;20.00;52.70;;;;;;4991777;28;20468;-84
2022/05/20 05:10:21;;;;;;;24.80;23.50;;;20.10;52.60;;;;;;5008230;28;20424;-85
2022/05/20 05:12:47;;;;;;;25.67;24.27;;;20.10;52.60;;;;;;4991572;28;21032;-85
2022/05/20 05:15:14;;;;;;;24.07;22.90;;;20.10;52.40;;;;;;4991090;28;20451;-85
2022/05/20 05:20:26;;;;;;;25.37;24.17;;;20.10;51.80;;;;;;5012398;28;20518;-85
2022/05/20 05:22:53;;;;;;;24.93;23.67;;;20.10;52.40;;;;;;5011263;28;20428;-87
2022/05/20 05:25:22;;;;;;;25.47;24.27;;;20.10;52.60;;;;;;5014313;28;20424;-87
2022/05/20 05:27:48;;;;;;;25.10;23.60;;;20.10;52.80;;;;;;5014384;28;20467;-85
2022/05/20 05:30:14;;;;;;;27.00;25.60;;;20.10;52.10;;;;;;5014457;28;20595;-85
2022/05/20 05:32:41;;;;;;;23.87;22.47;;;20.20;50.80;;;;;;5014494;28;20815;-84
2022/05/20 05:35:13;;;;;;;25.70;24.37;;;20.30;51.50;;;;;;5014264;28;20448;-84
2022/05/20 05:37:39;;;;;;;26.60;25.17;;;20.30;50.40;;;;;;5014396;28;20420;-83
2022/05/20 05:40:08;;;;;;;25.50;24.10;;;20.40;49.70;;;;;;5015704;28;20426;-84
2022/05/20 05:42:33;;;;;;;24.93;23.73;;;20.40;49.80;;;;;;5014153;28;20420;-85
2022/05/20 05:45:00;;;;;;;24.57;23.30;;;20.50;49.60;;;;;;5013245;28;20451;-85
2022/05/20 05:47:26;;;;;;;25.20;24.00;;;20.50;50.80;;;;;;5012415;28;20625;-86
2022/05/20 05:49:51;;;;;;;24.13;23.00;;;20.60;51.00;;;;;;5030204;28;20424;-88
2022/05/20 05:52:17;;;;;;;23.53;22.53;;;20.70;50.30;;;;;;5013762;28;20177;-85
2022/05/20 05:54:43;;;;;;;24.77;23.57;;;20.70;51.60;;;;;;5014040;28;20235;-85
2022/05/20 05:57:09;;;;;;;25.83;24.63;;;20.70;51.80;;;;;;5014226;28;20228;-86
2022/05/20 05:59:37;;;;;;;25.40;23.70;;;20.80;50.50;;;;;;5014423;28;20555;-85
2022/05/20 06:02:04;;;;;;;25.20;24.00;;;20.80;50.70;;;;;;5014049;28;20423;-85
2022/05/20 06:04:30;;;;;;;24.33;23.23;;;20.90;51.20;;;;;;5013946;28;20452;-85
2022/05/20 06:06:56;;;;;;;24.23;22.90;;;20.90;52.20;;;;;;5017272;28;20412;-85
2022/05/20 06:09:22;;;;;;;22.87;21.77;;;20.90;52.60;;;;;;5017103;28;20482;-84
2022/05/20 06:11:49;;;;;;;24.53;23.30;;;20.90;51.40;;;;;;5014220;28;20601;-84
2022/05/20 06:14:15;;;;;;;23.20;22.20;;;20.90;51.20;;;;;;5013586;28;20427;-87
2022/05/20 06:16:41;;;;;;;25.50;24.30;;;20.90;50.10;;;;;;5013702;28;20423;-84
2022/05/20 06:19:07;;;;;;;25.40;24.00;;;21.20;47.40;;;;;;5015115;28;20416;-84
2022/05/20 06:21:33;;;;;;;25.37;24.07;;;21.40;45.50;;;;;;5013811;28;20814;-84
2022/05/20 06:24:01;;;;;;;24.90;23.50;;;21.50;45.40;;;;;;5013583;28;20560;-84
2022/05/20 06:26:27;;;;;;;25.27;24.07;;;21.60;45.20;;;;;;5013622;28;20185;-84
2022/05/20 06:28:53;;;;;;;24.57;23.37;;;21.70;44.40;;;;;;5013922;28;20994;-83
2022/05/20 06:31:19;;;;;;;26.67;25.37;;;21.70;44.80;;;;;;5013099;28;20420;-84
2022/05/20 06:33:45;;;;;;;24.30;22.90;;;21.90;43.30;;;;;;5014367;28;20197;-83
2022/05/20 06:41:39;;;;;;;24.97;23.77;;;22.10;44.00;;;;;;5015042;28;20434;-83
2022/05/20 06:44:05;;;;;;;25.23;24.10;;;22.10;43.40;;;;;;5013150;28;20908;-84
2022/05/20 06:46:31;;;;;;;26.20;25.00;;;22.20;43.60;;;;;;5013820;28;20208;-84
2022/05/20 06:48:57;;;;;;;24.97;23.77;;;22.30;42.40;;;;;;5012851;28;20213;-83
2022/05/20 06:51:27;;;;;;;26.30;24.90;;;22.30;42.90;;;;;;5013027;28;20190;-84
2022/05/20 06:53:55;;;;;;;26.17;24.93;;;22.40;42.60;;;;;;5003378;28;20432;-85
2022/05/20 06:56:24;;;;;;;25.77;24.57;;;22.60;41.90;;;;;;5012507;28;20412;-81
2022/05/20 06:58:50;;;;;;;27.63;25.93;;;22.70;41.20;;;;;;5013299;28;20456;-84
2022/05/20 07:01:18;;;;;;;25.57;24.30;;;22.80;41.00;;;;;;5011918;28;20416;-83
2022/05/20 07:03:47;;;;;;;27.60;25.73;;;22.90;40.70;;;;;;5013034;28;20483;-81
2022/05/20 07:06:14;;;;;;;26.33;24.83;;;23.10;39.90;;;;;;5013114;28;20431;-86
2022/05/20 07:08:48;;;;;;;25.53;24.33;;;23.20;38.40;;;;;;5014568;28;20524;-85
2022/05/20 07:11:35;;;;;;;26.27;25.17;;;23.30;38.80;;;;;;5019854;28;20440;-84
2022/05/20 07:14:08;;;;;;;27.00;25.70;;;23.40;37.40;;;;;;4993452;28;20436;-83
2022/05/20 07:16:34;;;;;;;26.53;25.00;;;23.40;38.80;;;;;;5009510;28;20405;-84
2022/05/20 07:19:01;;;;;;;26.27;25.07;;;23.40;37.40;;;;;;4993535;28;20416;-80
2022/05/20 07:21:27;;;;;;;26.93;25.60;;;23.50;38.20;;;;;;4992577;28;20227;-80
2022/05/20 07:23:53;;;;;;;26.97;25.50;;;23.60;36.90;;;;;;4992490;28;20424;-80
2022/05/20 07:26:19;;;;;;;26.73;25.47;;;23.60;37.90;;;;;;4992075;28;20909;-80
2022/05/20 07:28:45;;;;;;;27.80;26.57;;;23.60;38.70;;;;;;4994604;28;20308;-80
2022/05/20 07:31:11;;;;;;;26.73;25.20;;;23.60;38.50;;;;;;5012199;28;20424;-80
2022/05/20 07:33:37;;;;;;;28.03;26.40;;;23.80;37.40;;;;;;5011690;28;20421;-80
2022/05/20 07:36:04;;;;;;;26.90;25.60;;;23.90;37.30;;;;;;5011674;28;20621;-80
2022/05/20 07:38:30;;;;;;;26.47;24.90;;;24.00;36.10;;;;;;5013140;28;20192;-80
2022/05/20 07:40:57;;;;;;;26.73;25.43;;;24.10;36.20;;;;;;5012125;28;20808;-80
2022/05/20 07:43:24;;;;;;;26.03;24.83;;;24.20;37.00;;;;;;5011552;28;20185;-83
2022/05/20 07:45:51;;;;;;;25.90;24.60;;;24.20;35.70;;;;;;5011167;28;20452;-81
2022/05/20 07:48:18;;;;;;;26.97;25.67;;;24.30;35.30;;;;;;5011249;28;20458;-82
2022/05/20 07:50:46;;;;;;;26.50;25.25;;;24.20;35.10;;;;;;5011083;28;20461;-81
2022/05/20 07:53:23;;;;;;;29.10;27.23;;;24.20;36.60;;;;;;5012078;28;20184;-82
2022/05/20 07:55:59;;;;;;;26.40;25.20;;;24.20;36.20;;;;;;5011855;28;20500;-82
2022/05/20 07:58:29;;;;;;;25.53;24.33;;;24.40;34.70;;;;;;5011542;28;20510;-82
2022/05/20 08:00:58;;;;;;;26.57;25.37;;;24.40;34.60;;;;;;5012289;28;20916;-82
2022/05/20 08:06:10;;;;;;;27.00;25.57;;;24.30;36.10;;;;;;5012880;28;21027;-82
2022/05/20 08:08:35;;;;;;;26.37;25.07;;;24.30;36.50;;;;;;5011233;28;20596;-82
2022/05/20 08:11:01;;;;;;;25.50;24.33;;;24.30;37.00;;;;;;5011518;28;20181;-82
2022/05/20 08:13:26;;;;;;;27.00;25.77;;;24.30;36.20;;;;;;5012422;28;20177;-82
2022/05/20 08:15:52;;;;;;;26.77;25.30;;;24.30;37.30;;;;;;5011210;28;20181;-82
2022/05/20 08:18:18;;;;;;;25.77;24.47;;;24.30;38.20;;;;;;5011418;28;20177;-82
2022/05/20 08:20:47;;;;;;;27.27;25.87;;;24.50;37.10;;;;;;5010810;28;20539;-82
2022/05/20 08:23:13;;;;;;;25.57;24.33;;;24.60;36.30;;;;;;5011934;28;20444;-82
2022/05/20 08:25:38;;;;;;;26.60;25.33;;;24.70;35.40;;;;;;5000173;28;20519;-82
2022/05/20 08:28:05;;;;;;;25.73;24.50;;;24.80;34.10;;;;;;5006026;28;20205;-82
2022/05/20 08:30:31;;;;;;;27.23;25.90;;;24.90;33.00;;;;;;5022931;28;20178;-82
2022/05/20 08:32:56;;;;;;;25.40;24.30;;;25.00;33.60;;;;;;5009466;28;20409;-82
2022/05/20 08:35:23;;;;;;;26.80;25.50;;;25.10;33.60;;;;;;5009279;28;20420;-82
2022/05/20 08:37:49;;;;;;;26.53;25.33;;;25.20;31.50;;;;;;5010547;28;20197;-82
2022/05/20 08:40:25;;;;;;;27.50;26.07;;;25.20;32.40;;;;;;5011000;28;20440;-82
2022/05/20 08:42:53;;;;;;;26.97;25.70;;;25.20;33.00;;;;;;5013784;28;20762;-82
2022/05/20 08:45:22;;;;;;;26.43;25.10;;;25.30;31.40;;;;;;5021282;28;20440;-82
2022/05/20 08:47:49;;;;;;;28.20;26.70;;;25.40;31.20;;;;;;5010840;28;20530;-82
2022/05/20 08:50:46;;;;;;;26.60;25.40;;;25.40;31.40;;;;;;5011279;28;20448;-82
2022/05/20 08:53:17;;;;;;;25.50;24.00;;;25.50;31.10;;;;;;4992438;28;20432;-82
2022/05/20 08:55:43;;;;;;;28.80;26.93;;;25.50;31.30;;;;;;5009912;28;20768;-82
2022/05/20 08:58:12;;;;;;;26.90;25.70;;;25.50;32.00;;;;;;5012128;28;20428;-82
2022/05/20 09:00:38;;;;;;;26.80;25.50;;;25.50;31.20;;;;;;5014656;28;20243;-82
2022/05/20 09:03:06;;;;;;;26.33;25.13;;;25.60;31.40;;;;;;5016323;28;20416;-82
2022/05/20 09:05:36;;;;;;;26.43;25.30;;;25.60;30.90;;;;;;5031351;28;20274;-82
2022/05/20 09:08:13;;;;;;;26.10;24.40;;;25.70;30.70;;;;;;5031609;28;20979;-83
2022/05/20 09:10:44;;;;;;;25.60;24.30;;;26.10;28.00;;;;;;5012042;28;20931;-83
2022/05/20 09:13:22;;;;;;;27.20;26.00;;;26.20;27.40;;;;;;4994668;28;20977;-83
2022/05/20 09:16:03;;;;;;;27.23;25.93;;;26.20;27.60;;;;;;4993280;28;20471;-83
2022/05/20 09:18:28;;;;;;;26.97;25.63;;;26.20;26.70;;;;;;4994902;28;20452;-83
2022/05/20 09:20:54;;;;;;;28.30;26.60;;;26.30;27.00;;;;;;4993812;28;20468;-83
2022/05/20 09:23:22;;;;;;;27.30;25.80;;;26.20;27.70;;;;;;4993362;28;20197;-84
2022/05/20 09:26:06;;;;;;;26.97;25.47;;;26.30;26.90;;;;;;5014155;23;20477;-84
2022/05/20 09:28:39;;;;;;;27.03;25.80;;;26.50;27.30;;;;;;4994232;28;20480;-84
2022/05/20 09:31:16;;;;;;;27.37;25.93;;;26.50;27.00;;;;;;4995170;28;20519;-84
2022/05/20 09:33:50;;;;;;;27.77;26.27;;;26.80;26.00;;;;;;4995051;28;20904;-84
2022/05/20 09:37:09;;;;;;;27.33;25.83;;;26.90;26.10;;;;;;4994544;28;20430;-86
2022/05/20 09:39:43;;;;;;;26.20;24.90;;;27.00;25.70;;;;;;4986493;28;20496;-85
2022/05/20 09:42:16;;;;;;;27.23;25.93;;;27.20;24.70;;;;;;5011380;28;20413;-86
2022/05/20 09:44:49;;;;;;;26.20;24.90;;;27.20;25.10;;;;;;4994476;28;20515;-86
2022/05/20 09:47:25;;;;;;;25.80;24.50;;;27.20;25.80;;;;;;5011094;28;20417;-83
2022/05/20 09:49:59;;;;;;;25.30;24.10;;;27.30;24.30;;;;;;5010925;28;20416;-82
2022/05/20 09:52:40;;;;;;;24.90;23.70;;;27.30;25.10;;;;;;4994158;28;20431;-83
2022/05/20 09:55:22;;;;;;;26.03;24.73;;;27.10;25.20;;;;;;4993979;28;20416;-83
2022/05/20 09:57:48;;;;;;;24.97;23.73;;;27.10;25.20;;;;;;4994656;28;20408;-83
2022/05/20 10:00:20;;;;;;;26.30;24.60;;;27.30;25.40;;;;;;4994618;28;20791;-83
2022/05/20 10:02:50;;;;;;;24.83;23.80;;;27.30;25.20;;;;;;4993891;28;20906;-83
2022/05/20 10:05:27;;;;;;;25.00;23.80;;;27.30;25.20;;;;;;4993511;28;20425;-82
2022/05/20 10:08:07;;;;;;;26.13;24.57;;;27.30;25.50;;;;;;4994197;28;20467;-82
2022/05/20 10:10:42;;;;;;;25.37;24.27;;;27.30;25.90;;;;;;4989962;28;20438;-83
2022/05/20 10:13:18;;;;;;;26.43;25.03;;;27.20;26.20;;;;;;4997072;28;20449;-82
2022/05/20 10:15:48;;;;;;;27.10;25.80;;;27.30;26.30;;;;;;4993355;28;20420;-82
2022/05/20 10:18:45;;;;;;;24.00;22.87;;;27.40;26.00;;;;;;4993583;28;20426;-83
2022/05/20 10:21:29;;;;;;;22.97;21.53;;;27.50;24.50;;;;;;4993918;28;20470;-83
2022/05/20 10:24:17;;;;;;;22.90;21.77;;;27.50;25.60;;;;;;4993634;28;21005;-83
2022/05/20 10:27:17;;;;;;;23.97;22.90;;;27.70;25.30;;;;;;4993529;28;20444;-83
2022/05/20 10:33:05;;;;;;;24.17;23.10;;;28.30;23.00;;;;;;4995010;28;20468;-83
2022/05/20 10:35:51;;;;;;;24.30;23.00;;;28.40;22.10;;;;;;4993046;28;20440;-82
2022/05/20 10:38:22;;;;;;;23.77;21.90;;;28.60;21.30;;;;;;4983101;28;20908;-81
2022/05/20 10:41:12;;;;;;;24.93;23.13;;;28.70;20.10;;;;;;4993393;28;20983;-82
2022/05/20 10:50:04;;;;;;;24.10;22.40;;;28.90;19.10;;;;;;4993502;28;20531;-81
2022/05/20 10:52:47;;;;;;;24.90;23.13;;;29.00;19.40;;;;;;4992931;28;20421;-81
2022/05/20 10:55:37;;;;;;;24.03;22.37;;;28.90;19.20;;;;;;4992770;28;20424;-81
2022/05/20 10:58:44;;;;;;;23.03;21.73;;;28.90;19.10;;;;;;4991021;28;20423;-81
2022/05/20 11:01:26;;;;;;;22.10;21.10;;;28.80;19.90;;;;;;4990058;28;20429;-81
2022/05/20 11:04:14;;;;;;;22.73;21.63;;;28.80;19.80;;;;;;4993001;28;20425;-81
2022/05/20 11:07:17;;;;;;;23.40;22.30;;;28.70;19.50;;;;;;4992778;28;20425;-81
2022/05/20 11:09:43;;;;;;;23.47;22.37;;;29.00;19.00;;;;;;4992608;28;20555;-81
2022/05/20 11:12:34;;;;;;;22.10;21.10;;;29.10;19.10;;;;;;4992655;28;21009;-82
2022/05/20 11:15:18;;;;;;;23.03;21.73;;;29.10;19.60;;;;;;4992548;28;20657;-81
2022/05/20 11:17:58;;;;;;;23.53;22.13;;;29.10;18.50;;;;;;4992913;28;20429;-82
2022/05/20 11:21:00;;;;;;;23.80;22.60;;;29.00;18.50;;;;;;4992466;28;20900;-82
2022/05/20 11:23:40;;;;;;;23.60;22.43;;;28.90;18.50;;;;;;4992460;28;20425;-82
2022/05/20 11:26:34;;;;;;;23.80;22.53;;;29.10;18.60;;;;;;4992225;28;20456;-83
2022/05/20 11:29:18;;;;;;;21.77;20.87;;;29.20;16.90;;;;;;4992227;28;20467;-83
2022/05/20 11:31:51;;;;;;;22.47;20.90;;;29.30;18.10;;;;;;4991899;28;20948;-84
2022/05/20 11:34:55;;;;;;;22.20;20.80;;;29.10;18.20;;;;;;4991765;28;20437;-83
2022/05/20 11:37:50;;;;;;;23.07;21.77;;;29.10;18.40;;;;;;4991793;28;20688;-83
2022/05/20 11:40:37;;;;;;;22.87;21.37;;;29.20;18.00;;;;;;4972663;28;20422;-83
2022/05/20 11:43:07;;;;;;;22.57;21.17;;;29.20;18.00;;;;;;4976808;28;20425;-83
2022/05/20 11:45:35;;;;;;;22.97;21.43;;;29.10;18.10;;;;;;4993034;28;20989;-83
2022/05/20 11:48:25;;;;;;;22.70;21.60;;;29.20;18.30;;;;;;4994320;28;20464;-83
2022/05/20 11:51:09;;;;;;;23.40;21.90;;;29.10;18.00;;;;;;4991500;28;20520;-80
2022/05/20 11:53:54;;;;;;;22.90;21.77;;;29.00;18.50;;;;;;4990341;28;20479;-80
2022/05/20 11:56:23;;;;;;;22.53;21.43;;;29.00;18.50;;;;;;4990989;28;20786;-80
2022/05/20 11:59:06;;;;;;;22.63;21.33;;;29.00;18.50;;;;;;4991215;28;20433;-80
2022/05/20 12:01:59;;;;;;;22.43;21.13;;;28.90;19.20;;;;;;4991779;28;20456;-82
2022/05/20 12:04:33;;;;;;;23.40;21.90;;;29.00;18.70;;;;;;4992672;28;20432;-80
2022/05/20 12:07:04;;;;;;;21.80;20.80;;;29.20;18.00;;;;;;4992664;28;20536;-82
2022/05/20 12:09:36;;;;;;;26.03;24.00;;;29.30;18.70;;;;;;4992070;28;20469;-82
2022/05/20 12:12:29;;;;;;;23.40;22.00;;;29.60;17.90;;;;;;4992218;28;20421;-83
2022/05/20 12:14:58;;;;;;;24.30;23.00;;;29.50;17.90;;;;;;4972245;28;20936;-83
2022/05/20 12:17:37;;;;;;;24.30;22.83;;;29.30;18.00;;;;;;4972549;28;20530;-83
2022/05/20 12:26:42;;;;;;;24.10;22.90;;;29.40;18.70;;;;;;4993020;28;20933;-83
2022/05/20 12:29:35;;;;;;;23.67;22.67;;;29.30;18.30;;;;;;4991747;28;21039;-83
2022/05/20 12:32:29;;;;;;;24.30;22.93;;;29.30;17.90;;;;;;4991553;28;20434;-83
2022/05/20 12:35:31;;;;;;;23.93;22.27;;;29.30;18.70;;;;;;4988920;28;20428;-83
2022/05/20 12:38:17;;;;;;;23.70;22.60;;;29.30;17.60;;;;;;4990109;28;20448;-83
2022/05/20 12:40:42;;;;;;;22.97;21.87;;;29.60;18.60;;;;;;4991630;28;20512;-83
2022/05/20 12:43:10;;;;;;;22.23;21.23;;;29.60;18.00;;;;;;4991318;28;20512;-83
2022/05/20 12:45:56;;;;;;;22.90;21.70;;;29.80;16.60;;;;;;4991169;28;20193;-83
2022/05/20 12:48:27;;;;;;;22.23;21.07;;;29.70;17.80;;;;;;4991538;28;20465;-83
2022/05/20 12:51:02;;;;;;;22.37;21.30;;;29.70;17.30;;;;;;4980942;28;20957;-82
2022/05/20 12:53:29;;;;;;;22.30;21.30;;;29.60;17.20;;;;;;4980658;28;20416;-83
2022/05/20 12:55:56;;;;;;;22.13;21.23;;;29.60;16.60;;;;;;4991967;28;20420;-83
2022/05/20 12:58:29;;;;;;;23.07;21.40;;;29.70;16.30;;;;;;4992044;28;20483;-83
2022/05/20 13:00:58;;;;;;;21.80;20.70;;;29.60;15.50;;;;;;4991682;28;20511;-83
2022/05/20 13:03:36;;;;;;;22.80;21.37;;;29.70;16.70;;;;;;4991867;28;20432;-83
2022/05/20 13:06:22;;;;;;;26.03;24.23;;;29.70;15.90;;;;;;4992205;28;20828;-83
2022/05/20 13:09:04;;;;;;;22.87;21.57;;;29.70;16.00;;;;;;4991749;28;20977;-83
2022/05/20 13:11:44;;;;;;;21.70;20.23;;;30.00;15.10;;;;;;4991975;28;20425;-83
2022/05/20 13:14:34;;;;;;;22.40;21.27;;;30.10;15.00;;;;;;4991678;28;20425;-83
2022/05/20 13:17:03;;;;;;;21.70;20.70;;;30.20;15.40;;;;;;4991982;28;20405;-79
2022/05/20 13:19:45;;;;;;;21.40;20.20;;;30.30;14.80;;;;;;4989736;28;20568;-79
2022/05/20 13:22:16;;;;;;;22.00;20.90;;;30.20;13.70;;;;;;4990581;28;20472;-79
2022/05/20 13:24:42;;;;;;;21.10;20.20;;;30.40;13.10;;;;;;4986712;28;20523;-80
2022/05/20 13:27:17;;;;;;;22.50;20.67;;;30.50;13.70;;;;;;4983595;28;20895;-80
2022/05/20 13:29:46;;;;;;;21.43;20.00;;;30.70;12.90;;;;;;4980803;28;20555;-80
2022/05/20 13:32:16;;;;;;;21.87;20.47;;;30.70;13.50;;;;;;4989402;28;20938;-80
2022/05/20 13:34:43;;;;;;;21.70;20.60;;;30.80;13.80;;;;;;4992543;28;20471;-80